Issaquah — WSD3625 — position and weather

sailwx.info

Track history (hours):
 
Tides and Currents Weather Stations Pressure Air Temp Water Temp Dewpoint Dewpoint Depression Visibility Wind Speed Wind Dir Waves Ship Positions

Issaquah

Owner: WASHINGTON, STATE OF; Department of Transportation, OLYMPIA, WA. More information available from US FCC via Universal Licensing System and Coast Guard Vessel Documentation Center.

Last reported at 2017-Nov-07 15:49 UTC. Time now 2017-Nov-17 19:52 UTC.
Position N 47°37' W 122°31'.
Warning: this ship's position is 10 days out of date.

Length 100 m; draft 5 m.

Type: Passenger vessel. MMSI: 366773040.

Date/timePositionNaut miles runAvg speedWind from/ knotsBaromVisibWave heightAir tempDewpointWater temp
2017-Nov-07 15:49N 47°37' W 122°31'0 0.0
2017-Nov-07 15:30N 47°37' W 122°31'0 0.0
2017-Nov-07 15:00N 47°37' W 122°31'0 0.0
2017-Nov-07 14:30N 47°37' W 122°31'0 0.0
2017-Nov-07 14:00N 47°37' W 122°31'0 0.0
2017-Nov-07 13:30N 47°37' W 122°31'0 0.0
2017-Nov-07 13:00N 47°37' W 122°31'0 0.0
2017-Nov-07 12:31N 47°37' W 122°31'0 0.0
2017-Nov-07 12:00N 47°37' W 122°31'0 0.0
2017-Nov-07 11:30N 47°37' W 122°31'0 0.0
2017-Nov-07 11:01N 47°37' W 122°31'0 0.0
2017-Nov-07 10:30N 47°37' W 122°31'0 0.0
2017-Nov-07 10:01N 47°37' W 122°31'0 0.0
2017-Nov-07 09:30N 47°37' W 122°31'0 0.0
2017-Nov-07 09:00N 47°37' W 122°31'0 0.0
2017-Nov-07 08:30N 47°37' W 122°31'0 0.0
2017-Nov-07 08:01N 47°37' W 122°31'0 0.0
2017-Nov-07 07:30N 47°37' W 122°31'0 0.0
2017-Nov-07 07:00N 47°37' W 122°31'0 0.0
2017-Nov-07 06:30N 47°37' W 122°31'0 0.0
2017-Nov-07 06:01N 47°37' W 122°31'0 0.0
2017-Nov-07 05:30N 47°37' W 122°31'0 0.0
2017-Nov-07 05:01N 47°37' W 122°31'0 0.0
2017-Nov-07 04:30N 47°37' W 122°31'0 0.0
2017-Nov-07 04:00N 47°37' W 122°31'0 0.0
2017-Nov-07 03:30N 47°37' W 122°31'0 0.0
2017-Nov-07 03:00N 47°37' W 122°31'0 0.0
2017-Nov-07 02:30N 47°37' W 122°31'0 0.0
2017-Nov-07 02:00N 47°37' W 122°31'0 0.0
2017-Nov-07 01:30N 47°37' W 122°31'0 0.0
2017-Nov-07 01:00N 47°37' W 122°31'0 0.0
2017-Nov-07 00:30N 47°37' W 122°31'0 0.0
2017-Nov-07 00:01N 47°37' W 122°31'0 0.0
2017-Nov-06 23:30N 47°37' W 122°31'0 0.0
2017-Nov-06 23:00N 47°37' W 122°31'0 0.0
2017-Nov-06 22:30N 47°37' W 122°31'0 0.0
2017-Nov-06 22:00N 47°37' W 122°31'0 0.0
2017-Nov-06 21:30N 47°37' W 122°31'0 0.0
2017-Nov-06 21:01N 47°37' W 122°31'0 0.0
2017-Nov-06 20:31N 47°37' W 122°31'0 0.0
2017-Nov-06 02:31N 47°37' W 122°31'0 0.0
2017-Nov-06 02:00N 47°37' W 122°31'0 0.0
2017-Nov-06 01:30N 47°37' W 122°31'0 0.0
2017-Nov-06 01:01N 47°37' W 122°31'0 0.0
2017-Nov-06 00:30N 47°37' W 122°31'0 0.0
2017-Nov-06 00:00N 47°37' W 122°31'0 0.0
2017-Nov-05 23:30N 47°37' W 122°31'0 0.0
2017-Nov-05 23:00N 47°37' W 122°31'0 0.0
2017-Nov-05 22:30N 47°37' W 122°31'4 7.6
2017-Nov-05 22:01N 47°35' W 122°27'4 7.7
2017-Nov-05 21:31N 47°31' W 122°24'2 4.9
2017-Nov-05 21:00N 47°31' W 122°28'1 2.7
2017-Nov-05 20:31N 47°31' W 122°30'4 7.1
2017-Nov-05 20:01N 47°31' W 122°25'1 1.3
2017-Nov-05 19:30N 47°31' W 122°25'3 5.9
2017-Nov-05 19:01N 47°31' W 122°30'1 2.6
2017-Nov-05 18:30N 47°31' W 122°28'3 5.6
2017-Nov-05 18:00N 47°31' W 122°24'3 5.5
2017-Nov-05 17:30N 47°31' W 122°28'0 0.1
2017-Nov-05 17:00N 47°31' W 122°28'3 5.6
2017-Nov-05 16:30N 47°31' W 122°24'3 5.6
2017-Nov-05 16:00N 47°31' W 122°28'1 2.7
2017-Nov-05 15:31N 47°31' W 122°30'2 3.7
2017-Nov-05 15:00N 47°31' W 122°27'2 3.0
2017-Nov-05 14:30N 47°31' W 122°25'3 6.7
2017-Nov-05 14:00N 47°31' W 122°30'1 2.6
2017-Nov-05 13:30N 47°31' W 122°28'3 5.6
2017-Nov-05 13:01N 47°31' W 122°24'3 5.6
2017-Nov-05 12:30N 47°31' W 122°28'1 2.6
2017-Nov-05 12:00N 47°31' W 122°30'0 0.0
2017-Nov-05 11:30N 47°31' W 122°30'0 0.0
2017-Nov-05 11:00N 47°31' W 122°30'0 0.0
2017-Nov-05 10:30N 47°31' W 122°30'0 0.0
2017-Nov-05 10:00N 47°31' W 122°30'1 2.6
2017-Nov-05 09:30N 47°31' W 122°28'3 5.6
2017-Nov-05 09:00N 47°31' W 122°24'4 7.8
2017-Nov-05 08:31N 47°31' W 122°30'4 7.4
2017-Nov-05 08:01N 47°31' W 122°24'4 7.7
2017-Nov-05 07:30N 47°31' W 122°30'1 2.5
2017-Nov-05 07:01N 47°31' W 122°28'2 4.5
2017-Nov-05 06:30N 47°31' W 122°25'2 4.5
2017-Nov-05 06:01N 47°31' W 122°28'3 5.5
2017-Nov-05 05:31N 47°31' W 122°24'3 5.5
2017-Nov-05 05:01N 47°31' W 122°28'2 3.6
2017-Nov-05 04:30N 47°31' W 122°25'0 0.3
2017-Nov-05 04:01N 47°31' W 122°25'3 5.8
2017-Nov-05 03:30N 47°31' W 122°30'1 2.6
2017-Nov-05 03:01N 47°31' W 122°28'3 5.6
2017-Nov-05 02:30N 47°31' W 122°24'3 5.5
2017-Nov-05 02:01N 47°31' W 122°28'3 5.4
2017-Nov-05 01:30N 47°31' W 122°24'3 5.4
2017-Nov-05 01:01N 47°31' W 122°28'3 5.5
2017-Nov-05 00:30N 47°31' W 122°24'3 5.6
2017-Nov-05 00:00N 47°31' W 122°28'1 1.1
2017-Nov-04 23:31N 47°31' W 122°28'3 6.3
2017-Nov-04 23:00N 47°31' W 122°24'3 5.5
2017-Nov-04 22:30N 47°31' W 122°28'1 2.7
2017-Nov-04 22:00N 47°31' W 122°30'3 5.6
2017-Nov-04 21:30N 47°31' W 122°26'1 1.2
2017-Nov-04 21:01N 47°31' W 122°25'2 3.0
2017-Nov-04 20:31N 47°31' W 122°27'2 4.4
2017-Nov-04 20:01N 47°31' W 122°24'3 7.0
2017-Nov-04 19:31N 47°31' W 122°29'1 1.5
2017-Nov-04 19:00N 47°31' W 122°28'3 5.6
2017-Nov-04 18:31N 47°31' W 122°24'4 7.3
2017-Nov-04 18:00N 47°31' W 122°29'1 1.8
2017-Nov-04 17:31N 47°31' W 122°28'3 5.6
2017-Nov-04 17:00N 47°31' W 122°24'3 5.5
2017-Nov-04 16:30N 47°31' W 122°28'0 0.1
2017-Nov-04 16:00N 47°31' W 122°28'3 5.6
2017-Nov-04 15:30N 47°31' W 122°24'3 5.6
2017-Nov-04 15:01N 47°31' W 122°28'1 2.7
2017-Nov-04 14:30N 47°31' W 122°30'2 3.6
2017-Nov-04 14:01N 47°31' W 122°27'2 3.5
2017-Nov-04 13:31N 47°31' W 122°25'4 7.1
2017-Nov-04 13:00N 47°31' W 122°30'1 2.6
2017-Nov-04 12:30N 47°31' W 122°28'3 5.6
2017-Nov-04 12:00N 47°31' W 122°24'3 5.6
2017-Nov-04 11:30N 47°31' W 122°28'1 2.6
2017-Nov-04 11:00N 47°31' W 122°30'0 0.0
2017-Nov-04 10:31N 47°31' W 122°30'0 0.0
2017-Nov-04 10:01N 47°31' W 122°30'1 2.6
2017-Nov-04 09:30N 47°31' W 122°28'3 5.6
2017-Nov-04 09:00N 47°31' W 122°24'4 7.8
2017-Nov-04 08:31N 47°31' W 122°30'3 5.8
2017-Nov-04 08:01N 47°31' W 122°25'3 5.4
2017-Nov-04 07:30N 47°31' W 122°29'1 2.0
2017-Nov-04 07:00N 47°31' W 122°28'2 4.0
2017-Nov-04 06:30N 47°31' W 122°25'2 3.9
2017-Nov-04 06:01N 47°31' W 122°28'3 5.5
2017-Nov-04 05:30N 47°31' W 122°24'3 5.6
2017-Nov-04 05:01N 47°31' W 122°28'1 1.9
2017-Nov-04 04:30N 47°31' W 122°27'2 3.7
2017-Nov-04 04:01N 47°31' W 122°24'3 6.8
2017-Nov-04 03:30N 47°31' W 122°29'0 0.9
2017-Nov-04 03:01N 47°31' W 122°28'3 6.1
2017-Nov-04 02:31N 47°31' W 122°24'3 5.5
2017-Nov-04 02:00N 47°31' W 122°28'1 2.7
2017-Nov-04 01:30N 47°31' W 122°30'1 2.6
2017-Nov-04 01:00N 47°31' W 122°28'3 5.6
2017-Nov-04 00:30N 47°31' W 122°24'2 4.6
2017-Nov-04 00:01N 47°31' W 122°27'2 4.4
2017-Nov-03 23:31N 47°31' W 122°24'4 8.0
2017-Nov-03 23:01N 47°31' W 122°30'4 8.1
2017-Nov-03 22:30N 47°31' W 122°24'3 6.0
2017-Nov-03 22:00N 47°31' W 122°28'1 1.5
2017-Nov-03 21:31N 47°32' W 122°27'2 3.0
2017-Nov-03 21:00N 47°31' W 122°25'0 0.9
2017-Nov-03 20:30N 47°31' W 122°25'1 1.2
2017-Nov-03 20:01N 47°31' W 122°24'4 7.1
2017-Nov-03 19:31N 47°31' W 122°29'1 1.9
2017-Nov-03 19:01N 47°31' W 122°28'3 5.5
2017-Nov-03 18:31N 47°31' W 122°24'3 5.5
2017-Nov-03 18:00N 47°31' W 122°28'3 5.6
2017-Nov-03 17:31N 47°31' W 122°24'3 7.0
2017-Nov-03 17:00N 47°31' W 122°29'1 1.5
2017-Nov-03 16:30N 47°31' W 122°28'3 5.6
2017-Nov-03 16:00N 47°31' W 122°24'3 6.1
2017-Nov-03 15:31N 47°31' W 122°28'1 1.7
2017-Nov-03 15:01N 47°31' W 122°27'2 3.2
2017-Nov-03 14:31N 47°31' W 122°25'1 2.5
2017-Nov-03 14:01N 47°31' W 122°27'1 2.4
2017-Nov-03 13:30N 47°31' W 122°25'3 6.6
2017-Nov-03 13:00N 47°31' W 122°30'1 2.6
2017-Nov-03 12:31N 47°31' W 122°28'3 5.6
2017-Nov-03 12:00N 47°31' W 122°24'3 5.6
2017-Nov-03 11:31N 47°31' W 122°28'1 2.6
2017-Nov-03 11:00N 47°31' W 122°30'0 0.2
2017-Nov-03 10:31N 47°31' W 122°30'0 0.2
2017-Nov-03 10:00N 47°31' W 122°30'1 2.6
2017-Nov-03 09:30N 47°31' W 122°28'3 5.6
2017-Nov-03 09:00N 47°31' W 122°24'4 7.9
2017-Nov-03 08:31N 47°31' W 122°30'3 6.3
2017-Nov-03 08:00N 47°31' W 122°25'3 5.1
2017-Nov-03 07:30N 47°31' W 122°29'1 1.3
2017-Nov-03 07:01N 47°31' W 122°28'1 2.7
2017-Nov-03 06:30N 47°31' W 122°26'2 4.8
2017-Nov-03 06:00N 47°31' W 122°29'2 4.2
2017-Nov-03 05:30N 47°31' W 122°26'0 0.5
2017-Nov-03 05:00N 47°31' W 122°27'0 0.2
2017-Nov-03 04:31N 47°31' W 122°27'2 3.2
2017-Nov-03 04:01N 47°31' W 122°24'3 6.3
2017-Nov-03 03:30N 47°31' W 122°29'0 0.7
2017-Nov-03 03:01N 47°31' W 122°28'3 6.3
2017-Nov-03 02:31N 47°31' W 122°24'3 5.5
2017-Nov-03 02:00N 47°31' W 122°28'1 2.7
2017-Nov-03 01:31N 47°31' W 122°30'1 2.6
2017-Nov-03 01:00N 47°31' W 122°28'3 5.6
2017-Nov-03 00:30N 47°31' W 122°24'2 4.6
2017-Nov-03 00:00N 47°31' W 122°27'2 3.6
2017-Nov-02 23:31N 47°31' W 122°25'3 6.9
2017-Nov-02 23:01N 47°31' W 122°30'4 7.9
2017-Nov-02 22:30N 47°31' W 122°24'2 4.7
2017-Nov-02 22:00N 47°31' W 122°27'1 1.1
2017-Nov-02 21:30N 47°31' W 122°26'1 1.3
2017-Nov-02 21:00N 47°31' W 122°26'1 1.1
2017-Nov-02 20:30N 47°31' W 122°25'1 1.6
2017-Nov-02 20:00N 47°31' W 122°24'3 6.9
2017-Nov-02 19:31N 47°31' W 122°29'1 1.6
2017-Nov-02 19:00N 47°31' W 122°28'3 5.6
2017-Nov-02 18:30N 47°31' W 122°24'3 5.5
2017-Nov-02 18:00N 47°31' W 122°28'3 5.5
2017-Nov-02 17:30N 47°31' W 122°24'3 6.9
2017-Nov-02 17:00N 47°31' W 122°29'1 1.7
2017-Nov-02 16:31N 47°31' W 122°28'3 5.6
2017-Nov-02 16:00N 47°31' W 122°24'3 5.5
2017-Nov-02 15:30N 47°31' W 122°28'1 1.8
2017-Nov-02 15:00N 47°32' W 122°27'1 2.4
2017-Nov-02 14:30N 47°31' W 122°25'1 2.9
2017-Nov-02 14:01N 47°31' W 122°27'2 3.5
2017-Nov-02 13:31N 47°31' W 122°25'3 6.7
2017-Nov-02 13:00N 47°31' W 122°30'1 2.6
2017-Nov-02 12:30N 47°31' W 122°28'3 5.6
2017-Nov-02 12:00N 47°31' W 122°24'3 5.5
2017-Nov-02 11:31N 47°31' W 122°28'1 2.6
2017-Nov-02 11:01N 47°31' W 122°30'0 0.1
2017-Nov-02 10:30N 47°31' W 122°30'0 0.1
2017-Nov-02 10:01N 47°31' W 122°30'1 2.6
2017-Nov-02 09:30N 47°31' W 122°28'3 5.6
2017-Nov-02 09:00N 47°31' W 122°24'4 7.8
2017-Nov-02 08:30N 47°31' W 122°30'3 6.0
2017-Nov-02 08:01N 47°32' W 122°25'2 4.1
2017-Nov-02 07:30N 47°31' W 122°28'1 1.1
2017-Nov-02 07:00N 47°31' W 122°28'3 5.6
2017-Nov-02 06:30N 47°31' W 122°24'4 8.1
2017-Nov-02 06:00N 47°31' W 122°30'2 3.8
2017-Nov-02 05:30N 47°31' W 122°27'0 0.2
2017-Nov-02 05:00N 47°31' W 122°27'0 0.3
2017-Nov-02 04:31N 47°31' W 122°27'2 4.2
2017-Nov-02 04:01N 47°31' W 122°24'3 6.7
2017-Nov-02 03:31N 47°31' W 122°29'0 0.5
2017-Nov-02 03:01N 47°31' W 122°29'3 6.4
2017-Nov-02 02:30N 47°31' W 122°24'3 5.5
2017-Nov-02 02:00N 47°31' W 122°28'1 2.7
2017-Nov-02 01:30N 47°31' W 122°30'1 2.8
2017-Nov-02 01:01N 47°31' W 122°28'3 5.3
2017-Nov-02 00:30N 47°31' W 122°24'2 4.7
2017-Nov-02 00:00N 47°31' W 122°27'2 4.2
2017-Nov-01 23:30N 47°31' W 122°24'4 7.6
2017-Nov-01 23:00N 47°31' W 122°30'4 8.1
2017-Nov-01 22:30N 47°31' W 122°24'2 4.9
2017-Nov-01 22:00N 47°31' W 122°27'1 1.7
2017-Nov-01 21:30N 47°31' W 122°26'1 1.5
2017-Nov-01 21:01N 47°31' W 122°26'1 2.2
2017-Nov-01 20:30N 47°31' W 122°25'0 0.7
2017-Nov-01 20:01N 47°31' W 122°24'3 7.0
2017-Nov-01 19:31N 47°31' W 122°29'1 2.3
2017-Nov-01 19:00N 47°31' W 122°28'3 5.6
2017-Nov-01 18:30N 47°31' W 122°24'3 0.2
2017-Nov-01 02:00N 47°31' W 122°28'1 2.7
2017-Nov-01 01:30N 47°31' W 122°30'1 2.6
2017-Nov-01 01:00N 47°31' W 122°28'3 5.6
2017-Nov-01 00:30N 47°31' W 122°24'3 5.4
2017-Nov-01 00:01N 47°31' W 122°28'3 5.0
2017-Oct-31 23:30N 47°32' W 122°24'4 7.6
2017-Oct-31 23:00N 47°31' W 122°30'4 8.1
2017-Oct-31 22:30N 47°31' W 122°24'2 4.9
2017-Oct-31 22:00N 47°31' W 122°27'1 1.3
2017-Oct-31 21:31N 47°32' W 122°28'2 4.1
2017-Oct-31 21:00N 47°31' W 122°25'0 0.5
2017-Oct-31 20:31N 47°31' W 122°25'1 1.5
2017-Oct-31 20:01N 47°31' W 122°24'4 7.7
2017-Oct-31 19:30N 47°31' W 122°30'1 2.5
2017-Oct-31 19:00N 47°31' W 122°28'3 5.6
2017-Oct-31 18:31N 47°31' W 122°24'2 3.5
2017-Oct-31 18:00N 47°31' W 122°26'0 1.0
2017-Oct-31 17:31N 47°31' W 122°26'2 4.7
2017-Oct-31 17:01N 47°31' W 122°30'1 2.6
2017-Oct-31 16:31N 47°31' W 122°28'3 5.6
2017-Oct-31 16:01N 47°31' W 122°24'3 6.1
2017-Oct-31 15:31N 47°31' W 122°28'1 2.8
2017-Oct-31 15:01N 47°31' W 122°26'1 1.8
2017-Oct-31 14:30N 47°31' W 122°25'1 2.7
2017-Oct-31 14:01N 47°31' W 122°27'2 3.4
2017-Oct-31 13:30N 47°31' W 122°25'3 7.0
2017-Oct-31 13:00N 47°31' W 122°30'1 2.6
2017-Oct-31 12:30N 47°31' W 122°28'3 5.6
2017-Oct-31 12:00N 47°31' W 122°24'3 5.5
2017-Oct-31 11:31N 47°31' W 122°28'1 2.6
2017-Oct-31 11:00N 47°31' W 122°30'0 0.0
2017-Oct-31 10:30N 47°31' W 122°30'0 0.0
2017-Oct-31 10:00N 47°31' W 122°30'1 2.6
2017-Oct-31 09:30N 47°31' W 122°28'3 5.4
2017-Oct-31 09:00N 47°31' W 122°24'4 7.4
2017-Oct-31 08:30N 47°31' W 122°29'3 6.4
2017-Oct-31 08:01N 47°31' W 122°25'3 5.3
2017-Oct-31 07:31N 47°31' W 122°29'1 1.4
2017-Oct-31 07:01N 47°31' W 122°28'3 5.6
2017-Oct-31 06:31N 47°31' W 122°24'4 8.1
2017-Oct-31 06:00N 47°31' W 122°30'2 5.0
2017-Oct-31 05:30N 47°31' W 122°26'1 1.7
2017-Oct-31 05:01N 47°31' W 122°27'0 0.9
2017-Oct-31 04:30N 47°31' W 122°27'2 3.2
2017-Oct-31 04:01N 47°31' W 122°24'3 6.3
2017-Oct-31 03:30N 47°31' W 122°29'1 1.1
2017-Oct-31 03:00N 47°31' W 122°28'3 6.1
2017-Oct-31 02:30N 47°31' W 122°24'3 5.5
2017-Oct-31 02:00N 47°31' W 122°28'1 2.7
2017-Oct-31 01:30N 47°31' W 122°30'1 2.6
2017-Oct-31 01:00N 47°31' W 122°28'3 5.6
2017-Oct-31 00:31N 47°31' W 122°24'3 5.5
2017-Oct-31 00:01N 47°31' W 122°28'3 5.5
2017-Oct-30 23:31N 47°31' W 122°24'4 8.0
2017-Oct-30 23:00N 47°31' W 122°30'4 8.1
2017-Oct-30 22:30N 47°31' W 122°24'2 4.5
2017-Oct-30 22:00N 47°31' W 122°27'1 1.8
2017-Oct-30 21:31N 47°31' W 122°28'2 3.8
2017-Oct-30 21:00N 47°32' W 122°26'1 1.0
2017-Oct-30 20:30N 47°31' W 122°25'1 1.3
2017-Oct-30 20:01N 47°31' W 122°24'4 7.1
2017-Oct-30 19:30N 47°31' W 122°30'1 2.5
2017-Oct-30 19:00N 47°31' W 122°28'3 5.6
2017-Oct-30 18:30N 47°31' W 122°24'3 5.3
2017-Oct-30 18:00N 47°31' W 122°28'2 3.9
2017-Oct-30 17:31N 47°31' W 122°25'3 6.5
2017-Oct-30 17:01N 47°31' W 122°30'1 2.4
2017-Oct-30 16:30N 47°31' W 122°28'3 5.6
2017-Oct-30 16:00N 47°31' W 122°24'3 5.4
2017-Oct-30 15:31N 47°31' W 122°28'1 1.9
2017-Oct-30 15:00N 47°31' W 122°27'0 0.3
2017-Oct-30 14:00N 47°31' W 122°27'1 2.6
2017-Oct-30 13:30N 47°31' W 122°25'3 6.6
2017-Oct-30 13:00N 47°31' W 122°30'1 2.6
2017-Oct-30 12:30N 47°31' W 122°28'3 5.6
2017-Oct-30 12:00N 47°31' W 122°24'3 5.5
2017-Oct-30 11:30N 47°31' W 122°28'1 2.6
2017-Oct-30 11:00N 47°31' W 122°30'0 0.2
2017-Oct-30 10:30N 47°31' W 122°30'0 0.2
2017-Oct-30 10:00N 47°31' W 122°30'1 2.6
2017-Oct-30 09:30N 47°31' W 122°28'3 5.6
2017-Oct-30 09:00N 47°31' W 122°24'4 7.5
2017-Oct-30 08:31N 47°31' W 122°29'3 5.5
2017-Oct-30 08:00N 47°31' W 122°25'2 4.2
2017-Oct-30 07:30N 47°31' W 122°28'1 1.2
2017-Oct-30 07:00N 47°31' W 122°28'3 5.6
2017-Oct-30 06:30N 47°31' W 122°24'4 8.1
2017-Oct-30 06:00N 47°31' W 122°30'2 4.3
2017-Oct-30 05:30N 47°31' W 122°27'0 0.2
2017-Oct-30 05:01N 47°31' W 122°27'0 0.4
2017-Oct-30 04:31N 47°31' W 122°27'2 4.4
2017-Oct-30 04:00N 47°31' W 122°24'4 7.7
2017-Oct-30 03:31N 47°31' W 122°29'1 2.2
2017-Oct-30 03:01N 47°31' W 122°28'3 5.6
2017-Oct-30 02:31N 47°31' W 122°24'3 5.6
2017-Oct-30 02:00N 47°31' W 122°28'3 5.6
2017-Oct-30 01:31N 47°31' W 122°24'3 5.5
2017-Oct-30 01:00N 47°31' W 122°28'3 5.5
2017-Oct-30 00:30N 47°31' W 122°24'3 5.5
2017-Oct-30 00:01N 47°31' W 122°28'1 1.0
2017-Oct-29 23:30N 47°31' W 122°28'3 6.2
2017-Oct-29 23:00N 47°31' W 122°24'3 5.5
2017-Oct-29 22:30N 47°31' W 122°28'1 2.7
2017-Oct-29 22:00N 47°31' W 122°30'3 5.2
2017-Oct-29 21:31N 47°31' W 122°26'1 1.9
2017-Oct-29 21:01N 47°31' W 122°25'2 3.0
2017-Oct-29 20:30N 47°31' W 122°27'1 1.1
2017-Oct-29 20:01N 47°31' W 122°26'2 4.4
2017-Oct-29 19:30N 47°31' W 122°30'2 4.3
2017-Oct-29 19:00N 47°31' W 122°27'1 2.4
2017-Oct-29 18:30N 47°31' W 122°25'3 5.9
2017-Oct-29 18:01N 47°31' W 122°29'1 1.8
2017-Oct-29 17:30N 47°31' W 122°28'3 5.6
2017-Oct-29 17:00N 47°31' W 122°24'3 5.5
2017-Oct-29 16:31N 47°31' W 122°28'0 0.2
2017-Oct-29 16:00N 47°31' W 122°28'3 5.6
2017-Oct-29 15:30N 47°31' W 122°24'3 5.6
2017-Oct-29 15:01N 47°31' W 122°28'1 2.5
2017-Oct-29 14:30N 47°31' W 122°30'2 3.9
2017-Oct-29 14:00N 47°31' W 122°27'1 1.5
2017-Oct-29 13:31N 47°32' W 122°27'2 4.7
2017-Oct-29 13:01N 47°31' W 122°30'1 2.6
2017-Oct-29 12:30N 47°31' W 122°28'3 5.6
2017-Oct-29 12:00N 47°31' W 122°24'3 5.6
2017-Oct-29 11:31N 47°31' W 122°28'1 2.6
2017-Oct-29 11:00N 47°31' W 122°30'0 0.0
2017-Oct-29 10:30N 47°31' W 122°30'1 2.6
2017-Oct-29 10:00N 47°31' W 122°28'3 5.4
2017-Oct-29 09:30N 47°31' W 122°24'3 5.4
2017-Oct-29 09:00N 47°31' W 122°28'1 2.3
2017-Oct-29 08:30N 47°31' W 122°30'4 7.3
2017-Oct-29 08:00N 47°31' W 122°24'4 7.3
2017-Oct-29 07:31N 47°31' W 122°30'1 2.3
2017-Oct-29 07:00N 47°31' W 122°28'3 5.2
2017-Oct-29 06:30N 47°31' W 122°24'4 7.2
2017-Oct-29 06:01N 47°31' W 122°29'2 4.9
2017-Oct-29 05:30N 47°31' W 122°26'1 1.1
2017-Oct-29 05:01N 47°31' W 122°27'1 2.5
2017-Oct-29 04:30N 47°31' W 122°25'1 1.7
2017-Oct-29 04:00N 47°31' W 122°26'1 0.1
2017-Oct-28 19:01N 47°31' W 122°28'3 5.6
2017-Oct-28 18:31N 47°31' W 122°24'4 7.5
2017-Oct-28 18:00N 47°31' W 122°29'1 2.0
2017-Oct-28 17:31N 47°31' W 122°28'3 5.6
2017-Oct-28 17:00N 47°31' W 122°24'3 5.5
2017-Oct-28 16:30N 47°31' W 122°28'0 0.2
2017-Oct-28 16:00N 47°31' W 122°28'  
Track history (hours):
 
Tides and Currents Weather Stations Pressure Air Temp Water Temp Dewpoint Dewpoint Depression Visibility Wind Speed Wind Dir Waves Ship Positions

Issaquah

Owner: WASHINGTON, STATE OF; Department of Transportation, OLYMPIA, WA. More information available from US FCC via Universal Licensing System and Coast Guard Vessel Documentation Center.

Last reported at 2017-Nov-07 15:49 UTC. Time now 2017-Nov-17 19:52 UTC.
Position N 47°37' W 122°31'.
Warning: this ship's position is 10 days out of date.

Length 100 m; draft 5 m.

Type: Passenger vessel. MMSI: 366773040.

Date/timePositionNaut miles runAvg speedWind from/ knotsBaromVisibWave heightAir tempDewpointWater temp
2017-Nov-07 15:49N 47°37' W 122°31'0 0.0
2017-Nov-07 15:30N 47°37' W 122°31'0 0.0
2017-Nov-07 15:00N 47°37' W 122°31'0 0.0
2017-Nov-07 14:30N 47°37' W 122°31'0 0.0
2017-Nov-07 14:00N 47°37' W 122°31'0 0.0
2017-Nov-07 13:30N 47°37' W 122°31'0 0.0
2017-Nov-07 13:00N 47°37' W 122°31'0 0.0
2017-Nov-07 12:31N 47°37' W 122°31'0 0.0
2017-Nov-07 12:00N 47°37' W 122°31'0 0.0
2017-Nov-07 11:30N 47°37' W 122°31'0 0.0
2017-Nov-07 11:01N 47°37' W 122°31'0 0.0
2017-Nov-07 10:30N 47°37' W 122°31'0 0.0
2017-Nov-07 10:01N 47°37' W 122°31'0 0.0
2017-Nov-07 09:30N 47°37' W 122°31'0 0.0
2017-Nov-07 09:00N 47°37' W 122°31'0 0.0
2017-Nov-07 08:30N 47°37' W 122°31'0 0.0
2017-Nov-07 08:01N 47°37' W 122°31'0 0.0
2017-Nov-07 07:30N 47°37' W 122°31'0 0.0
2017-Nov-07 07:00N 47°37' W 122°31'0 0.0
2017-Nov-07 06:30N 47°37' W 122°31'0 0.0
2017-Nov-07 06:01N 47°37' W 122°31'0 0.0
2017-Nov-07 05:30N 47°37' W 122°31'0 0.0
2017-Nov-07 05:01N 47°37' W 122°31'0 0.0
2017-Nov-07 04:30N 47°37' W 122°31'0 0.0
2017-Nov-07 04:00N 47°37' W 122°31'0 0.0
2017-Nov-07 03:30N 47°37' W 122°31'0 0.0
2017-Nov-07 03:00N 47°37' W 122°31'0 0.0
2017-Nov-07 02:30N 47°37' W 122°31'0 0.0
2017-Nov-07 02:00N 47°37' W 122°31'0 0.0
2017-Nov-07 01:30N 47°37' W 122°31'0 0.0
2017-Nov-07 01:00N 47°37' W 122°31'0 0.0
2017-Nov-07 00:30N 47°37' W 122°31'0 0.0
2017-Nov-07 00:01N 47°37' W 122°31'0 0.0
2017-Nov-06 23:30N 47°37' W 122°31'0 0.0
2017-Nov-06 23:00N 47°37' W 122°31'0 0.0
2017-Nov-06 22:30N 47°37' W 122°31'0 0.0
2017-Nov-06 22:00N 47°37' W 122°31'0 0.0
2017-Nov-06 21:30N 47°37' W 122°31'0 0.0
2017-Nov-06 21:01N 47°37' W 122°31'0 0.0
2017-Nov-06 20:31N 47°37' W 122°31'0 0.0
2017-Nov-06 02:31N 47°37' W 122°31'0 0.0
2017-Nov-06 02:00N 47°37' W 122°31'0 0.0
2017-Nov-06 01:30N 47°37' W 122°31'0 0.0
2017-Nov-06 01:01N 47°37' W 122°31'0 0.0
2017-Nov-06 00:30N 47°37' W 122°31'0 0.0
2017-Nov-06 00:00N 47°37' W 122°31'0 0.0
2017-Nov-05 23:30N 47°37' W 122°31'0 0.0
2017-Nov-05 23:00N 47°37' W 122°31'0 0.0
2017-Nov-05 22:30N 47°37' W 122°31'4 7.6
2017-Nov-05 22:01N 47°35' W 122°27'4 7.7
2017-Nov-05 21:31N 47°31' W 122°24'2 4.9
2017-Nov-05 21:00N 47°31' W 122°28'1 2.7
2017-Nov-05 20:31N 47°31' W 122°30'4 7.1
2017-Nov-05 20:01N 47°31' W 122°25'1 1.3
2017-Nov-05 19:30N 47°31' W 122°25'3 5.9
2017-Nov-05 19:01N 47°31' W 122°30'1 2.6
2017-Nov-05 18:30N 47°31' W 122°28'3 5.6
2017-Nov-05 18:00N 47°31' W 122°24'3 5.5
2017-Nov-05 17:30N 47°31' W 122°28'0 0.1
2017-Nov-05 17:00N 47°31' W 122°28'3 5.6
2017-Nov-05 16:30N 47°31' W 122°24'3 5.6
2017-Nov-05 16:00N 47°31' W 122°28'1 2.7
2017-Nov-05 15:31N 47°31' W 122°30'2 3.7
2017-Nov-05 15:00N 47°31' W 122°27'2 3.0
2017-Nov-05 14:30N 47°31' W 122°25'3 6.7
2017-Nov-05 14:00N 47°31' W 122°30'1 2.6
2017-Nov-05 13:30N 47°31' W 122°28'3 5.6
2017-Nov-05 13:01N 47°31' W 122°24'3 5.6
2017-Nov-05 12:30N 47°31' W 122°28'1 2.6
2017-Nov-05 12:00N 47°31' W 122°30'0 0.0
2017-Nov-05 11:30N 47°31' W 122°30'0 0.0
2017-Nov-05 11:00N 47°31' W 122°30'0 0.0
2017-Nov-05 10:30N 47°31' W 122°30'0 0.0
2017-Nov-05 10:00N 47°31' W 122°30'1 2.6
2017-Nov-05 09:30N 47°31' W 122°28'3 5.6
2017-Nov-05 09:00N 47°31' W 122°24'4 7.8
2017-Nov-05 08:31N 47°31' W 122°30'4 7.4
2017-Nov-05 08:01N 47°31' W 122°24'4 7.7
2017-Nov-05 07:30N 47°31' W 122°30'1 2.5
2017-Nov-05 07:01N 47°31' W 122°28'2 4.5
2017-Nov-05 06:30N 47°31' W 122°25'2 4.5
2017-Nov-05 06:01N 47°31' W 122°28'3 5.5
2017-Nov-05 05:31N 47°31' W 122°24'3 5.5
2017-Nov-05 05:01N 47°31' W 122°28'2 3.6
2017-Nov-05 04:30N 47°31' W 122°25'0 0.3
2017-Nov-05 04:01N 47°31' W 122°25'3 5.8
2017-Nov-05 03:30N 47°31' W 122°30'1 2.6
2017-Nov-05 03:01N 47°31' W 122°28'3 5.6
2017-Nov-05 02:30N 47°31' W 122°24'3 5.5
2017-Nov-05 02:01N 47°31' W 122°28'3 5.4
2017-Nov-05 01:30N 47°31' W 122°24'3 5.4
2017-Nov-05 01:01N 47°31' W 122°28'3 5.5
2017-Nov-05 00:30N 47°31' W 122°24'3 5.6
2017-Nov-05 00:00N 47°31' W 122°28'1 1.1
2017-Nov-04 23:31N 47°31' W 122°28'3 6.3
2017-Nov-04 23:00N 47°31' W 122°24'3 5.5
2017-Nov-04 22:30N 47°31' W 122°28'1 2.7
2017-Nov-04 22:00N 47°31' W 122°30'3 5.6
2017-Nov-04 21:30N 47°31' W 122°26'1 1.2
2017-Nov-04 21:01N 47°31' W 122°25'2 3.0
2017-Nov-04 20:31N 47°31' W 122°27'2 4.4
2017-Nov-04 20:01N 47°31' W 122°24'3 7.0
2017-Nov-04 19:31N 47°31' W 122°29'1 1.5
2017-Nov-04 19:00N 47°31' W 122°28'3 5.6
2017-Nov-04 18:31N 47°31' W 122°24'4 7.3
2017-Nov-04 18:00N 47°31' W 122°29'1 1.8
2017-Nov-04 17:31N 47°31' W 122°28'3 5.6
2017-Nov-04 17:00N 47°31' W 122°24'3 5.5
2017-Nov-04 16:30N 47°31' W 122°28'0 0.1
2017-Nov-04 16:00N 47°31' W 122°28'3 5.6
2017-Nov-04 15:30N 47°31' W 122°24'3 5.6
2017-Nov-04 15:01N 47°31' W 122°28'1 2.7
2017-Nov-04 14:30N 47°31' W 122°30'2 3.6
2017-Nov-04 14:01N 47°31' W 122°27'2 3.5
2017-Nov-04 13:31N 47°31' W 122°25'4 7.1
2017-Nov-04 13:00N 47°31' W 122°30'1 2.6
2017-Nov-04 12:30N 47°31' W 122°28'3 5.6
2017-Nov-04 12:00N 47°31' W 122°24'3 5.6
2017-Nov-04 11:30N 47°31' W 122°28'1 2.6
2017-Nov-04 11:00N 47°31' W 122°30'0 0.0
2017-Nov-04 10:31N 47°31' W 122°30'0 0.0
2017-Nov-04 10:01N 47°31' W 122°30'1 2.6
2017-Nov-04 09:30N 47°31' W 122°28'3 5.6
2017-Nov-04 09:00N 47°31' W 122°24'4 7.8
2017-Nov-04 08:31N 47°31' W 122°30'3 5.8
2017-Nov-04 08:01N 47°31' W 122°25'3 5.4
2017-Nov-04 07:30N 47°31' W 122°29'1 2.0
2017-Nov-04 07:00N 47°31' W 122°28'2 4.0
2017-Nov-04 06:30N 47°31' W 122°25'2 3.9
2017-Nov-04 06:01N 47°31' W 122°28'3 5.5
2017-Nov-04 05:30N 47°31' W 122°24'3 5.6
2017-Nov-04 05:01N 47°31' W 122°28'1 1.9
2017-Nov-04 04:30N 47°31' W 122°27'2 3.7
2017-Nov-04 04:01N 47°31' W 122°24'3 6.8
2017-Nov-04 03:30N 47°31' W 122°29'0 0.9
2017-Nov-04 03:01N 47°31' W 122°28'3 6.1
2017-Nov-04 02:31N 47°31' W 122°24'3 5.5
2017-Nov-04 02:00N 47°31' W 122°28'1 2.7
2017-Nov-04 01:30N 47°31' W 122°30'1 2.6
2017-Nov-04 01:00N 47°31' W 122°28'3 5.6
2017-Nov-04 00:30N 47°31' W 122°24'2 4.6
2017-Nov-04 00:01N 47°31' W 122°27'2 4.4
2017-Nov-03 23:31N 47°31' W 122°24'4 8.0
2017-Nov-03 23:01N 47°31' W 122°30'4 8.1
2017-Nov-03 22:30N 47°31' W 122°24'3 6.0
2017-Nov-03 22:00N 47°31' W 122°28'1 1.5
2017-Nov-03 21:31N 47°32' W 122°27'2 3.0
2017-Nov-03 21:00N 47°31' W 122°25'0 0.9
2017-Nov-03 20:30N 47°31' W 122°25'1 1.2
2017-Nov-03 20:01N 47°31' W 122°24'4 7.1
2017-Nov-03 19:31N 47°31' W 122°29'1 1.9
2017-Nov-03 19:01N 47°31' W 122°28'3 5.5
2017-Nov-03 18:31N 47°31' W 122°24'3 5.5
2017-Nov-03 18:00N 47°31' W 122°28'3 5.6
2017-Nov-03 17:31N 47°31' W 122°24'3 7.0
2017-Nov-03 17:00N 47°31' W 122°29'1 1.5
2017-Nov-03 16:30N 47°31' W 122°28'3 5.6
2017-Nov-03 16:00N 47°31' W 122°24'3 6.1
2017-Nov-03 15:31N 47°31' W 122°28'1 1.7
2017-Nov-03 15:01N 47°31' W 122°27'2 3.2
2017-Nov-03 14:31N 47°31' W 122°25'1 2.5
2017-Nov-03 14:01N 47°31' W 122°27'1 2.4
2017-Nov-03 13:30N 47°31' W 122°25'3 6.6
2017-Nov-03 13:00N 47°31' W 122°30'1 2.6
2017-Nov-03 12:31N 47°31' W 122°28'3 5.6
2017-Nov-03 12:00N 47°31' W 122°24'3 5.6
2017-Nov-03 11:31N 47°31' W 122°28'1 2.6
2017-Nov-03 11:00N 47°31' W 122°30'0 0.2
2017-Nov-03 10:31N 47°31' W 122°30'0 0.2
2017-Nov-03 10:00N 47°31' W 122°30'1 2.6
2017-Nov-03 09:30N 47°31' W 122°28'3 5.6
2017-Nov-03 09:00N 47°31' W 122°24'4 7.9
2017-Nov-03 08:31N 47°31' W 122°30'3 6.3
2017-Nov-03 08:00N 47°31' W 122°25'3 5.1
2017-Nov-03 07:30N 47°31' W 122°29'1 1.3
2017-Nov-03 07:01N 47°31' W 122°28'1 2.7
2017-Nov-03 06:30N 47°31' W 122°26'2 4.8
2017-Nov-03 06:00N 47°31' W 122°29'2 4.2
2017-Nov-03 05:30N 47°31' W 122°26'0 0.5
2017-Nov-03 05:00N 47°31' W 122°27'0 0.2
2017-Nov-03 04:31N 47°31' W 122°27'2 3.2
2017-Nov-03 04:01N 47°31' W 122°24'3 6.3
2017-Nov-03 03:30N 47°31' W 122°29'0 0.7
2017-Nov-03 03:01N 47°31' W 122°28'3 6.3
2017-Nov-03 02:31N 47°31' W 122°24'3 5.5
2017-Nov-03 02:00N 47°31' W 122°28'1 2.7
2017-Nov-03 01:31N 47°31' W 122°30'1 2.6
2017-Nov-03 01:00N 47°31' W 122°28'3 5.6
2017-Nov-03 00:30N 47°31' W 122°24'2 4.6
2017-Nov-03 00:00N 47°31' W 122°27'2 3.6
2017-Nov-02 23:31N 47°31' W 122°25'3 6.9
2017-Nov-02 23:01N 47°31' W 122°30'4 7.9
2017-Nov-02 22:30N 47°31' W 122°24'2 4.7
2017-Nov-02 22:00N 47°31' W 122°27'1 1.1
2017-Nov-02 21:30N 47°31' W 122°26'1 1.3
2017-Nov-02 21:00N 47°31' W 122°26'1 1.1
2017-Nov-02 20:30N 47°31' W 122°25'1 1.6
2017-Nov-02 20:00N 47°31' W 122°24'3 6.9
2017-Nov-02 19:31N 47°31' W 122°29'1 1.6
2017-Nov-02 19:00N 47°31' W 122°28'3 5.6
2017-Nov-02 18:30N 47°31' W 122°24'3 5.5
2017-Nov-02 18:00N 47°31' W 122°28'3 5.5
2017-Nov-02 17:30N 47°31' W 122°24'3 6.9
2017-Nov-02 17:00N 47°31' W 122°29'1 1.7
2017-Nov-02 16:31N 47°31' W 122°28'3 5.6
2017-Nov-02 16:00N 47°31' W 122°24'3 5.5
2017-Nov-02 15:30N 47°31' W 122°28'1 1.8
2017-Nov-02 15:00N 47°32' W 122°27'1 2.4
2017-Nov-02 14:30N 47°31' W 122°25'1 2.9
2017-Nov-02 14:01N 47°31' W 122°27'2 3.5
2017-Nov-02 13:31N 47°31' W 122°25'3 6.7
2017-Nov-02 13:00N 47°31' W 122°30'1 2.6
2017-Nov-02 12:30N 47°31' W 122°28'3 5.6
2017-Nov-02 12:00N 47°31' W 122°24'3 5.5
2017-Nov-02 11:31N 47°31' W 122°28'1 2.6
2017-Nov-02 11:01N 47°31' W 122°30'0 0.1
2017-Nov-02 10:30N 47°31' W 122°30'0 0.1
2017-Nov-02 10:01N 47°31' W 122°30'1 2.6
2017-Nov-02 09:30N 47°31' W 122°28'3 5.6
2017-Nov-02 09:00N 47°31' W 122°24'4 7.8
2017-Nov-02 08:30N 47°31' W 122°30'3 6.0
2017-Nov-02 08:01N 47°32' W 122°25'2 4.1
2017-Nov-02 07:30N 47°31' W 122°28'1 1.1
2017-Nov-02 07:00N 47°31' W 122°28'3 5.6
2017-Nov-02 06:30N 47°31' W 122°24'4 8.1
2017-Nov-02 06:00N 47°31' W 122°30'2 3.8
2017-Nov-02 05:30N 47°31' W 122°27'0 0.2
2017-Nov-02 05:00N 47°31' W 122°27'0 0.3
2017-Nov-02 04:31N 47°31' W 122°27'2 4.2
2017-Nov-02 04:01N 47°31' W 122°24'3 6.7
2017-Nov-02 03:31N 47°31' W 122°29'0 0.5
2017-Nov-02 03:01N 47°31' W 122°29'3 6.4
2017-Nov-02 02:30N 47°31' W 122°24'3 5.5
2017-Nov-02 02:00N 47°31' W 122°28'1 2.7
2017-Nov-02 01:30N 47°31' W 122°30'1 2.8
2017-Nov-02 01:01N 47°31' W 122°28'3 5.3
2017-Nov-02 00:30N 47°31' W 122°24'2 4.7
2017-Nov-02 00:00N 47°31' W 122°27'2 4.2
2017-Nov-01 23:30N 47°31' W 122°24'4 7.6
2017-Nov-01 23:00N 47°31' W 122°30'4 8.1
2017-Nov-01 22:30N 47°31' W 122°24'2 4.9
2017-Nov-01 22:00N 47°31' W 122°27'1 1.7
2017-Nov-01 21:30N 47°31' W 122°26'1 1.5
2017-Nov-01 21:01N 47°31' W 122°26'1 2.2
2017-Nov-01 20:30N 47°31' W 122°25'0 0.7
2017-Nov-01 20:01N 47°31' W 122°24'3 7.0
2017-Nov-01 19:31N 47°31' W 122°29'1 2.3
2017-Nov-01 19:00N 47°31' W 122°28'3 5.6
2017-Nov-01 18:30N 47°31' W 122°24'3 0.2
2017-Nov-01 02:00N 47°31' W 122°28'1 2.7
2017-Nov-01 01:30N 47°31' W 122°30'1 2.6
2017-Nov-01 01:00N 47°31' W 122°28'3 5.6
2017-Nov-01 00:30N 47°31' W 122°24'3 5.4
2017-Nov-01 00:01N 47°31' W 122°28'3 5.0
2017-Oct-31 23:30N 47°32' W 122°24'4 7.6
2017-Oct-31 23:00N 47°31' W 122°30'4 8.1
2017-Oct-31 22:30N 47°31' W 122°24'2 4.9
2017-Oct-31 22:00N 47°31' W 122°27'1 1.3
2017-Oct-31 21:31N 47°32' W 122°28'2 4.1
2017-Oct-31 21:00N 47°31' W 122°25'0 0.5
2017-Oct-31 20:31N 47°31' W 122°25'1 1.5
2017-Oct-31 20:01N 47°31' W 122°24'4 7.7
2017-Oct-31 19:30N 47°31' W 122°30'1 2.5
2017-Oct-31 19:00N 47°31' W 122°28'3 5.6
2017-Oct-31 18:31N 47°31' W 122°24'2 3.5
2017-Oct-31 18:00N 47°31' W 122°26'0 1.0
2017-Oct-31 17:31N 47°31' W 122°26'2 4.7
2017-Oct-31 17:01N 47°31' W 122°30'1 2.6
2017-Oct-31 16:31N 47°31' W 122°28'3 5.6
2017-Oct-31 16:01N 47°31' W 122°24'3 6.1
2017-Oct-31 15:31N 47°31' W 122°28'1 2.8
2017-Oct-31 15:01N 47°31' W 122°26'1 1.8
2017-Oct-31 14:30N 47°31' W 122°25'1 2.7
2017-Oct-31 14:01N 47°31' W 122°27'2 3.4
2017-Oct-31 13:30N 47°31' W 122°25'3 7.0
2017-Oct-31 13:00N 47°31' W 122°30'1 2.6
2017-Oct-31 12:30N 47°31' W 122°28'3 5.6
2017-Oct-31 12:00N 47°31' W 122°24'3 5.5
2017-Oct-31 11:31N 47°31' W 122°28'1 2.6
2017-Oct-31 11:00N 47°31' W 122°30'0 0.0
2017-Oct-31 10:30N 47°31' W 122°30'0 0.0
2017-Oct-31 10:00N 47°31' W 122°30'1 2.6
2017-Oct-31 09:30N 47°31' W 122°28'3 5.4
2017-Oct-31 09:00N 47°31' W 122°24'4 7.4
2017-Oct-31 08:30N 47°31' W 122°29'3 6.4
2017-Oct-31 08:01N 47°31' W 122°25'3 5.3
2017-Oct-31 07:31N 47°31' W 122°29'1 1.4
2017-Oct-31 07:01N 47°31' W 122°28'3 5.6
2017-Oct-31 06:31N 47°31' W 122°24'4 8.1
2017-Oct-31 06:00N 47°31' W 122°30'2 5.0
2017-Oct-31 05:30N 47°31' W 122°26'1 1.7
2017-Oct-31 05:01N 47°31' W 122°27'0 0.9
2017-Oct-31 04:30N 47°31' W 122°27'2 3.2
2017-Oct-31 04:01N 47°31' W 122°24'3 6.3
2017-Oct-31 03:30N 47°31' W 122°29'1 1.1
2017-Oct-31 03:00N 47°31' W 122°28'3 6.1
2017-Oct-31 02:30N 47°31' W 122°24'3 5.5
2017-Oct-31 02:00N 47°31' W 122°28'1 2.7
2017-Oct-31 01:30N 47°31' W 122°30'1 2.6
2017-Oct-31 01:00N 47°31' W 122°28'3 5.6
2017-Oct-31 00:31N 47°31' W 122°24'3 5.5
2017-Oct-31 00:01N 47°31' W 122°28'3 5.5
2017-Oct-30 23:31N 47°31' W 122°24'4 8.0
2017-Oct-30 23:00N 47°31' W 122°30'4 8.1
2017-Oct-30 22:30N 47°31' W 122°24'2 4.5
2017-Oct-30 22:00N 47°31' W 122°27'1 1.8
2017-Oct-30 21:31N 47°31' W 122°28'2 3.8
2017-Oct-30 21:00N 47°32' W 122°26'1 1.0
2017-Oct-30 20:30N 47°31' W 122°25'1 1.3
2017-Oct-30 20:01N 47°31' W 122°24'4 7.1
2017-Oct-30 19:30N 47°31' W 122°30'1 2.5
2017-Oct-30 19:00N 47°31' W 122°28'3 5.6
2017-Oct-30 18:30N 47°31' W 122°24'3 5.3
2017-Oct-30 18:00N 47°31' W 122°28'2 3.9
2017-Oct-30 17:31N 47°31' W 122°25'3 6.5
2017-Oct-30 17:01N 47°31' W 122°30'1 2.4
2017-Oct-30 16:30N 47°31' W 122°28'3 5.6
2017-Oct-30 16:00N 47°31' W 122°24'3 5.4
2017-Oct-30 15:31N 47°31' W 122°28'1 1.9
2017-Oct-30 15:00N 47°31' W 122°27'0 0.3
2017-Oct-30 14:00N 47°31' W 122°27'1 2.6
2017-Oct-30 13:30N 47°31' W 122°25'3 6.6
2017-Oct-30 13:00N 47°31' W 122°30'1 2.6
2017-Oct-30 12:30N 47°31' W 122°28'3 5.6
2017-Oct-30 12:00N 47°31' W 122°24'3 5.5
2017-Oct-30 11:30N 47°31' W 122°28'1 2.6
2017-Oct-30 11:00N 47°31' W 122°30'0 0.2
2017-Oct-30 10:30N 47°31' W 122°30'0 0.2
2017-Oct-30 10:00N 47°31' W 122°30'1 2.6
2017-Oct-30 09:30N 47°31' W 122°28'3 5.6
2017-Oct-30 09:00N 47°31' W 122°24'4 7.5
2017-Oct-30 08:31N 47°31' W 122°29'3 5.5
2017-Oct-30 08:00N 47°31' W 122°25'2 4.2
2017-Oct-30 07:30N 47°31' W 122°28'1 1.2
2017-Oct-30 07:00N 47°31' W 122°28'3 5.6
2017-Oct-30 06:30N 47°31' W 122°24'4 8.1
2017-Oct-30 06:00N 47°31' W 122°30'2 4.3
2017-Oct-30 05:30N 47°31' W 122°27'0 0.2
2017-Oct-30 05:01N 47°31' W 122°27'0 0.4
2017-Oct-30 04:31N 47°31' W 122°27'2 4.4
2017-Oct-30 04:00N 47°31' W 122°24'4 7.7
2017-Oct-30 03:31N 47°31' W 122°29'1 2.2
2017-Oct-30 03:01N 47°31' W 122°28'3 5.6
2017-Oct-30 02:31N 47°31' W 122°24'3 5.6
2017-Oct-30 02:00N 47°31' W 122°28'3 5.6
2017-Oct-30 01:31N 47°31' W 122°24'3 5.5
2017-Oct-30 01:00N 47°31' W 122°28'3 5.5
2017-Oct-30 00:30N 47°31' W 122°24'3 5.5
2017-Oct-30 00:01N 47°31' W 122°28'1 1.0
2017-Oct-29 23:30N 47°31' W 122°28'3 6.2
2017-Oct-29 23:00N 47°31' W 122°24'3 5.5
2017-Oct-29 22:30N 47°31' W 122°28'1 2.7
2017-Oct-29 22:00N 47°31' W 122°30'3 5.2
2017-Oct-29 21:31N 47°31' W 122°26'1 1.9
2017-Oct-29 21:01N 47°31' W 122°25'2 3.0
2017-Oct-29 20:30N 47°31' W 122°27'1 1.1
2017-Oct-29 20:01N 47°31' W 122°26'2 4.4
2017-Oct-29 19:30N 47°31' W 122°30'2 4.3
2017-Oct-29 19:00N 47°31' W 122°27'1 2.4
2017-Oct-29 18:30N 47°31' W 122°25'3 5.9
2017-Oct-29 18:01N 47°31' W 122°29'1 1.8
2017-Oct-29 17:30N 47°31' W 122°28'3 5.6
2017-Oct-29 17:00N 47°31' W 122°24'3 5.5
2017-Oct-29 16:31N 47°31' W 122°28'0 0.2
2017-Oct-29 16:00N 47°31' W 122°28'3 5.6
2017-Oct-29 15:30N 47°31' W 122°24'3 5.6
2017-Oct-29 15:01N 47°31' W 122°28'1 2.5
2017-Oct-29 14:30N 47°31' W 122°30'2 3.9
2017-Oct-29 14:00N 47°31' W 122°27'1 1.5
2017-Oct-29 13:31N 47°32' W 122°27'2 4.7
2017-Oct-29 13:01N 47°31' W 122°30'1 2.6
2017-Oct-29 12:30N 47°31' W 122°28'3 5.6
2017-Oct-29 12:00N 47°31' W 122°24'3 5.6
2017-Oct-29 11:31N 47°31' W 122°28'1 2.6
2017-Oct-29 11:00N 47°31' W 122°30'0 0.0
2017-Oct-29 10:30N 47°31' W 122°30'1 2.6
2017-Oct-29 10:00N 47°31' W 122°28'3 5.4
2017-Oct-29 09:30N 47°31' W 122°24'3 5.4
2017-Oct-29 09:00N 47°31' W 122°28'1 2.3
2017-Oct-29 08:30N 47°31' W 122°30'4 7.3
2017-Oct-29 08:00N 47°31' W 122°24'4 7.3
2017-Oct-29 07:31N 47°31' W 122°30'1 2.3
2017-Oct-29 07:00N 47°31' W 122°28'3 5.2
2017-Oct-29 06:30N 47°31' W 122°24'4 7.2
2017-Oct-29 06:01N 47°31' W 122°29'2 4.9
2017-Oct-29 05:30N 47°31' W 122°26'1 1.1
2017-Oct-29 05:01N 47°31' W 122°27'1 2.5
2017-Oct-29 04:30N 47°31' W 122°25'1 1.7
2017-Oct-29 04:00N 47°31' W 122°26'1 0.1
2017-Oct-28 19:01N 47°31' W 122°28'3 5.6
2017-Oct-28 18:31N 47°31' W 122°24'4 7.5
2017-Oct-28 18:00N 47°31' W 122°29'1 2.0
2017-Oct-28 17:31N 47°31' W 122°28'3 5.6
2017-Oct-28 17:00N 47°31' W 122°24'3 5.5
2017-Oct-28 16:30N 47°31' W 122°28'0 0.2
2017-Oct-28 16:00N 47°31' W 122°28'  

Dump ship's entire track history